sensor_id;sensor_type;location;lat;lon;timestamp;pressure;altitude;pressure_sealevel;temperature;humidity
49459;BME280;35354;51.296;16.924;2023-04-03T00:00:06;100486.59;;;0.95;81.93
49459;BME280;35354;51.296;16.924;2023-04-03T00:02:32;100465.16;;;0.87;82.51
49459;BME280;35354;51.296;16.924;2023-04-03T00:04:57;100469.41;;;0.76;82.13
49459;BME280;35354;51.296;16.924;2023-04-03T00:07:23;100490.84;;;0.92;83.02
49459;BME280;35354;51.296;16.924;2023-04-03T00:09:48;100473.66;;;0.79;82.90
49459;BME280;35354;51.296;16.924;2023-04-03T00:12:13;100482.25;;;0.84;82.74
49459;BME280;35354;51.296;16.924;2023-04-03T00:14:39;100497.63;;;0.81;83.08
49459;BME280;35354;51.296;16.924;2023-04-03T00:17:04;100494.22;;;0.80;83.08
49459;BME280;35354;51.296;16.924;2023-04-03T00:19:29;100492.41;;;0.70;83.34
49459;BME280;35354;51.296;16.924;2023-04-03T00:21:55;100509.50;;;0.71;83.34
49459;BME280;35354;51.296;16.924;2023-04-03T00:24:20;100498.44;;;0.72;84.19
49459;BME280;35354;51.296;16.924;2023-04-03T00:26:46;100495.94;;;0.86;83.83
49459;BME280;35354;51.296;16.924;2023-04-03T00:29:11;100468.44;;;0.60;83.33
49459;BME280;35354;51.296;16.924;2023-04-03T00:31:36;100500.19;;;0.81;84.24
49459;BME280;35354;51.296;16.924;2023-04-03T00:34:02;100478.69;;;0.60;83.96
49459;BME280;35354;51.296;16.924;2023-04-03T00:36:27;100497.56;;;0.73;84.03
49459;BME280;35354;51.296;16.924;2023-04-03T00:38:52;100503.59;;;0.77;84.51
49459;BME280;35354;51.296;16.924;2023-04-03T00:41:18;100499.28;;;0.75;84.01
49459;BME280;35354;51.296;16.924;2023-04-03T00:43:43;100496.81;;;0.86;83.88
49459;BME280;35354;51.296;16.924;2023-04-03T00:46:08;100501.00;;;0.73;84.52
49459;BME280;35354;51.296;16.924;2023-04-03T00:48:47;100480.38;;;0.57;84.67
49459;BME280;35354;51.296;16.924;2023-04-03T00:51:16;100447.84;;;0.49;84.14
49459;BME280;35354;51.296;16.924;2023-04-03T00:53:48;100497.59;;;0.79;84.81
49459;BME280;35354;51.296;16.924;2023-04-03T00:56:16;100504.41;;;0.75;84.44
49459;BME280;35354;51.296;16.924;2023-04-03T00:59:04;100513.75;;;0.66;85.26
49459;BME280;35354;51.296;16.924;2023-04-03T01:01:30;100510.41;;;0.79;85.65
49459;BME280;35354;51.296;16.924;2023-04-03T01:03:55;100511.25;;;0.73;85.73
49459;BME280;35354;51.296;16.924;2023-04-03T01:06:26;100488.13;;;0.64;85.90
49459;BME280;35354;51.296;16.924;2023-04-03T01:08:52;100499.13;;;0.53;85.02
49459;BME280;35354;51.296;16.924;2023-04-03T01:11:18;100509.44;;;0.60;86.18
49459;BME280;35354;51.296;16.924;2023-04-03T01:13:45;100494.06;;;0.62;85.87
49459;BME280;35354;51.296;16.924;2023-04-03T01:16:11;100529.22;;;0.77;85.66
49459;BME280;35354;51.296;16.924;2023-04-03T01:18:38;100511.16;;;0.61;86.16
49459;BME280;35354;51.296;16.924;2023-04-03T01:26:08;100509.44;;;0.60;86.68
49459;BME280;35354;51.296;16.924;2023-04-03T01:28:35;100534.34;;;0.78;86.54
49459;BME280;35354;51.296;16.924;2023-04-03T01:33:42;100510.34;;;0.64;86.56
49459;BME280;35354;51.296;16.924;2023-04-03T01:36:08;100527.34;;;0.56;86.93
49459;BME280;35354;51.296;16.924;2023-04-03T01:38:34;100536.84;;;0.69;87.07
49459;BME280;35354;51.296;16.924;2023-04-03T01:41:00;100548.03;;;0.77;86.91
49459;BME280;35354;51.296;16.924;2023-04-03T01:43:25;100530.75;;;0.53;87.33
49459;BME280;35354;51.296;16.924;2023-04-03T01:45:50;100528.28;;;0.64;87.43
49459;BME280;35354;51.296;16.924;2023-04-03T01:48:17;100534.97;;;0.49;87.34
49459;BME280;35354;51.296;16.924;2023-04-03T01:50:43;100532.31;;;0.37;87.85
49459;BME280;35354;51.296;16.924;2023-04-03T01:53:08;100526.38;;;0.40;88.52
49459;BME280;35354;51.296;16.924;2023-04-03T01:55:33;100564.91;;;0.54;88.02
49459;BME280;35354;51.296;16.924;2023-04-03T01:57:59;100562.28;;;0.46;88.65
49459;BME280;35354;51.296;16.924;2023-04-03T02:00:24;100567.41;;;0.46;89.08
49459;BME280;35354;51.296;16.924;2023-04-03T02:02:50;100567.44;;;0.50;89.33
49459;BME280;35354;51.296;16.924;2023-04-03T02:05:15;100550.28;;;0.40;89.18
49459;BME280;35354;51.296;16.924;2023-04-03T02:07:40;100573.31;;;0.34;89.17
49459;BME280;35354;51.296;16.924;2023-04-03T02:10:06;100539.91;;;0.27;89.92
49459;BME280;35354;51.296;16.924;2023-04-03T02:12:31;100513.25;;;0.06;90.34
49459;BME280;35354;51.296;16.924;2023-04-03T02:14:57;100539.75;;;0.11;90.15
49459;BME280;35354;51.296;16.924;2023-04-03T02:17:22;100566.34;;;0.24;90.22
49459;BME280;35354;51.296;16.924;2023-04-03T02:19:47;100566.34;;;0.24;90.43
49459;BME280;35354;51.296;16.924;2023-04-03T02:22:13;100537.97;;;0.03;90.58
49459;BME280;35354;51.296;16.924;2023-04-03T02:24:38;100537.22;;;0.14;91.19
49459;BME280;35354;51.296;16.924;2023-04-03T02:27:05;100561.22;;;0.22;90.36
49459;BME280;35354;51.296;16.924;2023-04-03T02:29:30;100542.31;;;0.11;91.03
49459;BME280;35354;51.296;16.924;2023-04-03T02:31:56;100550.06;;;0.17;90.34
49459;BME280;35354;51.296;16.924;2023-04-03T02:34:21;100579.28;;;0.36;90.88
49459;BME280;35354;51.296;16.924;2023-04-03T02:36:46;100573.22;;;0.28;90.79
49459;BME280;35354;51.296;16.924;2023-04-03T02:39:12;100546.66;;;0.18;90.56
49459;BME280;35354;51.296;16.924;2023-04-03T02:41:37;100551.69;;;0.09;90.72
49459;BME280;35354;51.296;16.924;2023-04-03T02:44:05;100577.50;;;0.26;90.78
49459;BME280;35354;51.296;16.924;2023-04-03T02:46:31;100555.03;;;0.04;91.17
49459;BME280;35354;51.296;16.924;2023-04-03T02:48:56;100557.66;;;0.08;91.57
49459;BME280;35354;51.296;16.924;2023-04-03T02:51:22;100571.19;;;-0.04;91.90
49459;BME280;35354;51.296;16.924;2023-04-03T02:53:48;100532.56;;;-0.22;92.09
49459;BME280;35354;51.296;16.924;2023-04-03T02:56:13;100544.69;;;-0.07;91.80
49459;BME280;35354;51.296;16.924;2023-04-03T02:58:39;100581.50;;;0.03;92.72
49459;BME280;35354;51.296;16.924;2023-04-03T03:01:04;100565.09;;;-0.13;92.41
49459;BME280;35354;51.296;16.924;2023-04-03T03:03:29;100561.50;;;-0.29;92.89
49459;BME280;35354;51.296;16.924;2023-04-03T03:08:27;100582.31;;;-0.03;92.99
49459;BME280;35354;51.296;16.924;2023-04-03T03:10:52;100578.75;;;-0.14;93.21
49459;BME280;35354;51.296;16.924;2023-04-03T03:13:18;100587.50;;;0.06;93.19
49459;BME280;35354;51.296;16.924;2023-04-03T03:15:43;100568.50;;;-0.14;93.01
49459;BME280;35354;51.296;16.924;2023-04-03T03:18:08;100569.25;;;-0.23;93.31
49459;BME280;35354;51.296;16.924;2023-04-03T03:20:34;100590.03;;;0.03;92.91
49459;BME280;35354;51.296;16.924;2023-04-03T03:22:59;100578.00;;;-0.06;92.87
49459;BME280;35354;51.296;16.924;2023-04-03T03:25:24;100572.97;;;0.02;92.39
49459;BME280;35354;51.296;16.924;2023-04-03T03:27:50;100538.50;;;-0.26;92.96
49459;BME280;35354;51.296;16.924;2023-04-03T03:30:15;100591.03;;;0.13;92.52
49459;BME280;35354;51.296;16.924;2023-04-03T03:32:40;100542.94;;;-0.11;92.55
49459;BME280;35354;51.296;16.924;2023-04-03T03:35:06;100579.03;;;0.10;92.30
49459;BME280;35354;51.296;16.924;2023-04-03T03:37:31;100560.72;;;-0.23;92.27
49459;BME280;35354;51.296;16.924;2023-04-03T03:39:56;100592.59;;;0.02;93.54
49459;BME280;35354;51.296;16.924;2023-04-03T03:42:22;100565.91;;;-0.17;93.03
49459;BME280;35354;51.296;16.924;2023-04-03T03:44:47;100586.53;;;-0.05;93.65
49459;BME280;35354;51.296;16.924;2023-04-03T03:47:12;100563.34;;;-0.17;92.98
49459;BME280;35354;51.296;16.924;2023-04-03T03:49:38;100583.91;;;-0.11;93.47
49459;BME280;35354;51.296;16.924;2023-04-03T03:52:03;100592.50;;;-0.08;93.56
49459;BME280;35354;51.296;16.924;2023-04-03T03:54:28;100589.06;;;-0.08;93.05
49459;BME280;35354;51.296;16.924;2023-04-03T03:56:54;100593.44;;;0.02;92.83
49459;BME280;35354;51.296;16.924;2023-04-03T03:59:19;100579.34;;;-0.37;93.29
49459;BME280;35354;51.296;16.924;2023-04-03T04:01:45;100567.28;;;-0.45;93.68
49459;BME280;35354;51.296;16.924;2023-04-03T04:04:10;100566.59;;;-0.31;93.47
49459;BME280;35354;51.296;16.924;2023-04-03T04:06:36;100608.50;;;-0.24;94.44
49459;BME280;35354;51.296;16.924;2023-04-03T04:09:01;100571.72;;;-0.31;94.37
49459;BME280;35354;51.296;16.924;2023-04-03T04:11:26;100596.66;;;-0.16;94.18
49459;BME280;35354;51.296;16.924;2023-04-03T04:13:52;100574.22;;;-0.37;93.89
49459;BME280;35354;51.296;16.924;2023-04-03T04:16:18;100589.63;;;-0.34;93.80
49459;BME280;35354;51.296;16.924;2023-04-03T04:18:43;100593.09;;;-0.26;94.07
49459;BME280;35354;51.296;16.924;2023-04-03T04:21:08;100585.38;;;-0.32;93.54
49459;BME280;35354;51.296;16.924;2023-04-03T04:23:34;100611.22;;;-0.09;93.88
49459;BME280;35354;51.296;16.924;2023-04-03T04:25:59;100619.72;;;-0.13;94.21
49459;BME280;35354;51.296;16.924;2023-04-03T04:28:24;100589.63;;;-0.34;93.60
49459;BME280;35354;51.296;16.924;2023-04-03T04:30:50;100593.84;;;-0.34;94.18
49459;BME280;35354;51.296;16.924;2023-04-03T04:33:15;100593.94;;;-0.27;94.25
49459;BME280;35354;51.296;16.924;2023-04-03T04:35:42;100620.28;;;-0.37;93.96
49459;BME280;35354;51.296;16.924;2023-04-03T04:38:07;100622.91;;;-0.31;94.51
49459;BME280;35354;51.296;16.924;2023-04-03T04:40:33;100603.22;;;-0.35;94.54
49459;BME280;35354;51.296;16.924;2023-04-03T04:42:59;100629.72;;;-0.33;94.84
49459;BME280;35354;51.296;16.924;2023-04-03T04:45:24;100631.44;;;-0.30;94.19
49459;BME280;35354;51.296;16.924;2023-04-03T04:47:49;100641.09;;;-0.11;93.74
49459;BME280;35354;51.296;16.924;2023-04-03T04:50:16;100641.06;;;-0.14;93.69
49459;BME280;35354;51.296;16.924;2023-04-03T04:52:42;100603.28;;;-0.33;93.31
49459;BME280;35354;51.296;16.924;2023-04-03T04:55:07;100606.72;;;-0.30;93.33
49459;BME280;35354;51.296;16.924;2023-04-03T04:57:32;100627.59;;;0.04;93.14
49459;BME280;35354;51.296;16.924;2023-04-03T04:59:58;100620.81;;;0.06;92.32
49459;BME280;35354;51.296;16.924;2023-04-03T05:02:23;100652.22;;;-0.09;92.44
49459;BME280;35354;51.296;16.924;2023-04-03T05:04:48;100624.09;;;-0.06;92.76
49459;BME280;35354;51.296;16.924;2023-04-03T05:07:15;100644.97;;;0.27;92.31
49459;BME280;35354;51.296;16.924;2023-04-03T05:09:41;100619.38;;;0.31;91.35
49459;BME280;35354;51.296;16.924;2023-04-03T05:12:07;100644.41;;;0.57;91.06
49459;BME280;35354;51.296;16.924;2023-04-03T05:14:32;100630.63;;;0.44;91.23
49459;BME280;35354;51.296;16.924;2023-04-03T05:16:58;100654.50;;;0.38;90.74
49459;BME280;35354;51.296;16.924;2023-04-03T05:19:23;100664.84;;;0.50;91.07
49459;BME280;35354;51.296;16.924;2023-04-03T05:21:48;100633.22;;;0.48;91.00
49459;BME280;35354;51.296;16.924;2023-04-03T05:24:14;100630.78;;;0.62;90.70
49459;BME280;35354;51.296;16.924;2023-04-03T05:26:41;100616.25;;;0.60;90.06
49459;BME280;35354;51.296;16.924;2023-04-03T05:29:06;100605.22;;;0.70;89.59
49459;BME280;35354;51.296;16.924;2023-04-03T05:31:32;100629.19;;;0.72;89.25
49459;BME280;35354;51.296;16.924;2023-04-03T05:33:57;100653.25;;;0.88;88.71
49459;BME280;35354;51.296;16.924;2023-04-03T05:36:23;100665.28;;;0.96;88.40
49459;BME280;35354;51.296;16.924;2023-04-03T05:38:48;100669.66;;;1.08;89.12
49459;BME280;35354;51.296;16.924;2023-04-03T05:41:15;100633.81;;;1.14;88.52
49459;BME280;35354;51.296;16.924;2023-04-03T05:43:40;100657.97;;;1.45;87.31
49459;BME280;35354;51.296;16.924;2023-04-03T05:46:13;100662.41;;;1.71;86.51
49459;BME280;35354;51.296;16.924;2023-04-03T05:48:39;100631.59;;;1.72;85.84
49459;BME280;35354;51.296;16.924;2023-04-03T05:51:06;100668.63;;;2.11;84.59
49459;BME280;35354;51.296;16.924;2023-04-03T05:53:33;100654.03;;;2.15;84.28
49459;BME280;35354;51.296;16.924;2023-04-03T05:56:00;100663.59;;;2.45;83.62
49459;BME280;35354;51.296;16.924;2023-04-03T05:58:25;100662.69;;;2.40;82.24
49459;BME280;35354;51.296;16.924;2023-04-03T06:00:51;100643.84;;;2.48;82.09
49459;BME280;35354;51.296;16.924;2023-04-03T06:03:16;100674.75;;;2.64;82.08
49459;BME280;35354;51.296;16.924;2023-04-03T06:05:42;100662.53;;;1.92;82.71
49459;BME280;35354;51.296;16.924;2023-04-03T06:08:07;100679.59;;;1.84;83.70
49459;BME280;35354;51.296;16.924;2023-04-03T06:10:34;100684.06;;;2.22;83.66
49459;BME280;35354;51.296;16.924;2023-04-03T06:12:59;100681.38;;;1.96;83.04
49459;BME280;35354;51.296;16.924;2023-04-03T06:15:24;100651.38;;;1.87;83.77
49459;BME280;35354;51.296;16.924;2023-04-03T06:17:50;100667.59;;;1.79;84.17
49459;BME280;35354;51.296;16.924;2023-04-03T06:20:16;100674.34;;;1.63;84.20
49459;BME280;35354;51.296;16.924;2023-04-03T06:22:41;100658.19;;;1.79;83.74
49459;BME280;35354;51.296;16.924;2023-04-03T06:25:07;100686.53;;;1.96;83.74
49459;BME280;35354;51.296;16.924;2023-04-03T06:27:33;100683.22;;;2.20;83.35
49459;BME280;35354;51.296;16.924;2023-04-03T06:29:58;100677.22;;;2.32;82.80
49459;BME280;35354;51.296;16.924;2023-04-03T06:32:23;100683.25;;;2.29;82.92
49459;BME280;35354;51.296;16.924;2023-04-03T06:34:49;100691.03;;;2.60;81.99
49459;BME280;35354;51.296;16.924;2023-04-03T06:37:19;100669.41;;;1.99;81.84
49459;BME280;35354;51.296;16.924;2023-04-03T06:39:44;100699.53;;;2.39;82.34
49459;BME280;35354;51.296;16.924;2023-04-03T06:42:10;100661.00;;;2.37;82.16
49459;BME280;35354;51.296;16.924;2023-04-03T06:44:36;100677.38;;;2.70;81.49
49459;BME280;35354;51.296;16.924;2023-04-03T06:47:01;100688.53;;;2.93;79.34
49459;BME280;35354;51.296;16.924;2023-04-03T06:49:27;100672.25;;;2.97;79.26
49459;BME280;35354;51.296;16.924;2023-04-03T06:51:53;100696.28;;;3.16;78.49
49459;BME280;35354;51.296;16.924;2023-04-03T06:54:18;100704.75;;;4.06;77.03
49459;BME280;35354;51.296;16.924;2023-04-03T06:56:44;100681.56;;;3.95;75.88
49459;BME280;35354;51.296;16.924;2023-04-03T06:59:10;100700.34;;;4.35;75.03
49459;BME280;35354;51.296;16.924;2023-04-03T07:01:38;100715.09;;;3.92;74.90
49459;BME280;35354;51.296;16.924;2023-04-03T07:04:03;100718.50;;;3.94;75.45
49459;BME280;35354;51.296;16.924;2023-04-03T07:06:28;100701.28;;;4.07;74.69
49459;BME280;35354;51.296;16.924;2023-04-03T07:08:55;100704.75;;;3.98;75.65
49459;BME280;35354;51.296;16.924;2023-04-03T07:11:20;100706.38;;;4.27;74.00
49459;BME280;35354;51.296;16.924;2023-04-03T07:13:46;100714.19;;;4.04;74.42
49459;BME280;35354;51.296;16.924;2023-04-03T07:16:11;100657.81;;;4.96;71.94
49459;BME280;35354;51.296;16.924;2023-04-03T07:18:36;100714.81;;;5.78;68.29
49459;BME280;35354;51.296;16.924;2023-04-03T07:21:02;100702.81;;;5.70;67.99
49459;BME280;35354;51.296;16.924;2023-04-03T07:23:28;100701.03;;;7.64;66.01
49459;BME280;35354;51.296;16.924;2023-04-03T07:25:53;100719.88;;;9.02;59.97
49459;BME280;35354;51.296;16.924;2023-04-03T07:28:20;100720.38;;;7.94;60.51
49459;BME280;35354;51.296;16.924;2023-04-03T07:30:54;100740.88;;;7.58;60.40
49459;BME280;35354;51.296;16.924;2023-04-03T07:33:24;100693.63;;;8.35;59.31
49459;BME280;35354;51.296;16.924;2023-04-03T07:35:49;100698.59;;;9.22;57.18
49459;BME280;35354;51.296;16.924;2023-04-03T07:38:15;100701.69;;;10.65;53.99
49459;BME280;35354;51.296;16.924;2023-04-03T07:40:46;100704.53;;;10.58;54.02
49459;BME280;35354;51.296;16.924;2023-04-03T07:43:11;100702.53;;;10.36;54.01
49459;BME280;35354;51.296;16.924;2023-04-03T07:45:37;100715.09;;;10.81;51.61
49459;BME280;35354;51.296;16.924;2023-04-03T07:48:02;100735.09;;;12.13;50.19
49459;BME280;35354;51.296;16.924;2023-04-03T07:50:27;100718.66;;;13.26;48.11
49459;BME280;35354;51.296;16.924;2023-04-03T07:52:55;100734.72;;;12.93;46.58
49459;BME280;35354;51.296;16.924;2023-04-03T07:55:22;100725.28;;;11.70;48.74
49459;BME280;35354;51.296;16.924;2023-04-03T07:57:48;100721.84;;;11.43;49.22
49459;BME280;35354;51.296;16.924;2023-04-03T08:00:13;100714.75;;;12.23;47.96
49459;BME280;35354;51.296;16.924;2023-04-03T08:02:39;100731.56;;;10.54;49.66
49459;BME280;35354;51.296;16.924;2023-04-03T08:05:05;100738.78;;;9.09;53.27
49459;BME280;35354;51.296;16.924;2023-04-03T08:07:30;100717.81;;;7.92;54.53
49459;BME280;35354;51.296;16.924;2023-04-03T08:09:56;100736.63;;;6.98;57.34
49459;BME280;35354;51.296;16.924;2023-04-03T08:12:22;100745.78;;;7.22;58.36
49459;BME280;35354;51.296;16.924;2023-04-03T08:14:47;100737.09;;;6.66;58.51
49459;BME280;35354;51.296;16.924;2023-04-03T08:17:12;100718.25;;;6.55;59.83
49459;BME280;35354;51.296;16.924;2023-04-03T08:19:39;100721.75;;;5.74;61.15
49459;BME280;35354;51.296;16.924;2023-04-03T08:22:04;100743.59;;;5.36;61.24
49459;BME280;35354;51.296;16.924;2023-04-03T08:24:31;100742.81;;;5.25;61.48
49459;BME280;35354;51.296;16.924;2023-04-03T08:26:57;100677.81;;;4.66;62.50
49459;BME280;35354;51.296;16.924;2023-04-03T08:29:23;100752.63;;;4.69;63.03
49459;BME280;35354;51.296;16.924;2023-04-03T08:31:48;100731.28;;;4.32;64.16
49459;BME280;35354;51.296;16.924;2023-04-03T08:34:15;100742.47;;;4.33;64.65
49459;BME280;35354;51.296;16.924;2023-04-03T08:36:41;100735.59;;;4.27;64.24
49459;BME280;35354;51.296;16.924;2023-04-03T08:39:06;100735.66;;;4.13;64.06
49459;BME280;35354;51.296;16.924;2023-04-03T08:41:35;100743.25;;;4.48;64.01
49459;BME280;35354;51.296;16.924;2023-04-03T08:44:17;100731.22;;;4.55;63.93
49459;BME280;35354;51.296;16.924;2023-04-03T08:49:42;100752.66;;;4.62;63.63
49459;BME280;35354;51.296;16.924;2023-04-03T08:52:18;100759.41;;;4.84;63.99
49459;BME280;35354;51.296;16.924;2023-04-03T08:54:55;100742.13;;;4.97;62.97
49459;BME280;35354;51.296;16.924;2023-04-03T08:57:33;100745.28;;;5.40;62.77
49459;BME280;35354;51.296;16.924;2023-04-03T09:00:20;100704.50;;;4.58;62.80
49459;BME280;35354;51.296;16.924;2023-04-03T09:02:53;100739.66;;;4.80;62.78
49459;BME280;35354;51.296;16.924;2023-04-03T09:07:57;100749.00;;;5.01;62.97
49459;BME280;35354;51.296;16.924;2023-04-03T09:10:28;100700.13;;;4.77;62.22
49459;BME280;35354;51.296;16.924;2023-04-03T09:13:13;100739.50;;;5.08;62.74
49459;BME280;35354;51.296;16.924;2023-04-03T09:15:45;100723.13;;;5.09;61.36
49459;BME280;35354;51.296;16.924;2023-04-03T09:18:21;100719.03;;;4.75;60.11
49459;BME280;35354;51.296;16.924;2023-04-03T09:23:53;100728.66;;;4.46;59.49
49459;BME280;35354;51.296;16.924;2023-04-03T09:26:26;100690.84;;;4.40;60.57
49459;BME280;35354;51.296;16.924;2023-04-03T09:28:56;100743.25;;;4.48;60.50
49459;BME280;35354;51.296;16.924;2023-04-03T09:31:26;100732.97;;;4.47;60.52
49459;BME280;35354;51.296;16.924;2023-04-03T09:34:01;100719.13;;;4.62;59.63
49459;BME280;35354;51.296;16.924;2023-04-03T09:36:46;100721.75;;;4.53;59.79
49459;BME280;35354;51.296;16.924;2023-04-03T09:39:15;100735.41;;;4.74;59.77
49459;BME280;35354;51.296;16.924;2023-04-03T09:41:42;100732.13;;;4.43;58.14
49459;BME280;35354;51.296;16.924;2023-04-03T09:44:22;100707.84;;;4.81;59.37
49459;BME280;35354;51.296;16.924;2023-04-03T09:46:48;100748.28;;;4.79;57.59
49459;BME280;35354;51.296;16.924;2023-04-03T09:49:13;100740.66;;;4.56;57.82
49459;BME280;35354;51.296;16.924;2023-04-03T09:51:40;100751.91;;;4.38;57.75
49459;BME280;35354;51.296;16.924;2023-04-03T09:54:41;100751.81;;;4.61;58.29
49459;BME280;35354;51.296;16.924;2023-04-03T09:57:10;100743.22;;;4.64;58.30
49459;BME280;35354;51.296;16.924;2023-04-03T09:59:45;100733.81;;;4.41;55.66
49459;BME280;35354;51.296;16.924;2023-04-03T10:04:41;100752.72;;;4.48;56.23
49459;BME280;35354;51.296;16.924;2023-04-03T10:07:35;100752.78;;;4.36;57.68
49459;BME280;35354;51.296;16.924;2023-04-03T10:10:20;100750.13;;;4.56;58.63
49459;BME280;35354;51.296;16.924;2023-04-03T10:15:58;100737.16;;;4.63;58.77
49459;BME280;35354;51.296;16.924;2023-04-03T10:18:46;100747.25;;;5.05;57.79
49459;BME280;35354;51.296;16.924;2023-04-03T10:21:24;100741.25;;;5.03;56.55
49459;BME280;35354;51.296;16.924;2023-04-03T10:24:10;100739.63;;;4.88;56.17
49459;BME280;35354;51.296;16.924;2023-04-03T10:26:48;100727.53;;;4.94;56.00
49459;BME280;35354;51.296;16.924;2023-04-03T10:34:31;100750.06;;;4.66;55.24
49459;BME280;35354;51.296;16.924;2023-04-03T10:42:46;100716.75;;;4.17;57.66
49459;BME280;35354;51.296;16.924;2023-04-03T10:50:45;100733.94;;;4.12;56.18
49459;BME280;35354;51.296;16.924;2023-04-03T10:53:31;100741.66;;;4.18;56.77
49459;BME280;35354;51.296;16.924;2023-04-03T10:59:02;100721.69;;;4.65;57.21
49459;BME280;35354;51.296;16.924;2023-04-03T11:01:38;100710.44;;;4.78;55.93
49459;BME280;35354;51.296;16.924;2023-04-03T11:04:06;100724.22;;;4.77;57.22
49459;BME280;35354;51.296;16.924;2023-04-03T11:06:40;100731.81;;;4.97;56.33
49459;BME280;35354;51.296;16.924;2023-04-03T11:09:29;100722.44;;;4.84;54.94
49459;BME280;35354;51.296;16.924;2023-04-03T11:12:02;100731.84;;;4.92;55.06
49459;BME280;35354;51.296;16.924;2023-04-03T11:14:36;100707.97;;;4.54;54.78
49459;BME280;35354;51.296;16.924;2023-04-03T11:19:47;100711.09;;;5.08;54.72
49459;BME280;35354;51.296;16.924;2023-04-03T11:24:54;100717.00;;;5.22;53.59
49459;BME280;35354;51.296;16.924;2023-04-03T11:27:23;100714.59;;;4.99;54.62
49459;BME280;35354;51.296;16.924;2023-04-03T11:29:50;100700.91;;;4.88;55.14
49459;BME280;35354;51.296;16.924;2023-04-03T11:35:01;100719.91;;;4.71;54.65
49459;BME280;35354;51.296;16.924;2023-04-03T11:37:46;100696.75;;;4.64;54.17
49459;BME280;35354;51.296;16.924;2023-04-03T11:40:34;100705.13;;;4.96;54.27
49459;BME280;35354;51.296;16.924;2023-04-03T11:43:30;100710.97;;;5.21;55.04
49459;BME280;35354;51.296;16.924;2023-04-03T11:46:03;100710.03;;;5.36;54.48
49459;BME280;35354;51.296;16.924;2023-04-03T11:56:59;100698.91;;;5.25;53.87
49459;BME280;35354;51.296;16.924;2023-04-03T11:59:24;100700.81;;;5.03;51.55
49459;BME280;35354;51.296;16.924;2023-04-03T12:01:52;100701.81;;;4.76;51.65
49459;BME280;35354;51.296;16.924;2023-04-03T12:04:19;100713.81;;;4.88;53.77
49459;BME280;35354;51.296;16.924;2023-04-03T12:12:34;100706.97;;;4.82;55.29
49459;BME280;35354;51.296;16.924;2023-04-03T12:15:24;100701.72;;;4.97;54.89
49459;BME280;35354;51.296;16.924;2023-04-03T12:17:50;100688.06;;;4.77;53.16
49459;BME280;35354;51.296;16.924;2023-04-03T12:23:29;100699.88;;;5.09;52.53
49459;BME280;35354;51.296;16.924;2023-04-03T12:26:02;100688.81;;;4.91;53.55
49459;BME280;35354;51.296;16.924;2023-04-03T12:28:35;100691.28;;;5.11;54.55
49459;BME280;35354;51.296;16.924;2023-04-03T12:31:01;100692.69;;;5.49;54.72
49459;BME280;35354;51.296;16.924;2023-04-03T12:34:09;100693.41;;;5.63;54.41
49459;BME280;35354;51.296;16.924;2023-04-03T12:42:37;100697.03;;;5.42;52.79
49459;BME280;35354;51.296;16.924;2023-04-03T12:45:20;100687.69;;;5.28;51.95
49459;BME280;35354;51.296;16.924;2023-04-03T12:47:48;100702.50;;;5.06;52.27
49459;BME280;35354;51.296;16.924;2023-04-03T12:50:21;100673.34;;;4.91;53.31
49459;BME280;35354;51.296;16.924;2023-04-03T12:52:59;100689.63;;;4.99;52.75
49459;BME280;35354;51.296;16.924;2023-04-03T12:55:25;100669.13;;;4.81;52.34
49459;BME280;35354;51.296;16.924;2023-04-03T12:57:51;100668.34;;;4.68;50.18
49459;BME280;35354;51.296;16.924;2023-04-03T13:02:46;100694.16;;;4.62;51.83
49459;BME280;35354;51.296;16.924;2023-04-03T13:05:16;100692.19;;;5.03;53.45
49459;BME280;35354;51.296;16.924;2023-04-03T13:07:41;100686.00;;;5.23;53.30
49459;BME280;35354;51.296;16.924;2023-04-03T13:12:57;100697.88;;;5.43;52.23
49459;BME280;35354;51.296;16.924;2023-04-03T13:15:30;100708.53;;;5.05;52.09
49459;BME280;35354;51.296;16.924;2023-04-03T13:18:04;100702.56;;;4.98;52.35
49459;BME280;35354;51.296;16.924;2023-04-03T13:20:32;100693.09;;;4.97;51.45
49459;BME280;35354;51.296;16.924;2023-04-03T13:23:08;100664.75;;;4.91;52.03
49459;BME280;35354;51.296;16.924;2023-04-03T13:25:41;100674.75;;;5.29;51.89
49459;BME280;35354;51.296;16.924;2023-04-03T13:28:12;100669.41;;;5.47;52.62
49459;BME280;35354;51.296;16.924;2023-04-03T13:30:39;100666.81;;;5.52;53.36
49459;BME280;35354;51.296;16.924;2023-04-03T13:33:20;100667.00;;;5.29;53.76
49459;BME280;35354;51.296;16.924;2023-04-03T13:35:47;100686.03;;;5.17;53.68
49459;BME280;35354;51.296;16.924;2023-04-03T13:40:52;100679.28;;;5.04;53.72
49459;BME280;35354;51.296;16.924;2023-04-03T13:43:22;100668.03;;;5.10;53.34
49459;BME280;35354;51.296;16.924;2023-04-03T13:46:02;100687.88;;;5.05;52.61
49459;BME280;35354;51.296;16.924;2023-04-03T13:48:45;100687.09;;;4.93;52.73
49459;BME280;35354;51.296;16.924;2023-04-03T13:53:47;100683.75;;;4.78;53.31
49459;BME280;35354;51.296;16.924;2023-04-03T13:56:21;100690.53;;;4.92;54.10
49459;BME280;35354;51.296;16.924;2023-04-03T13:58:57;100681.03;;;5.02;53.94
49459;BME280;35354;51.296;16.924;2023-04-03T14:01:25;100662.81;;;5.16;54.10
49459;BME280;35354;51.296;16.924;2023-04-03T14:03:55;100691.25;;;5.10;52.46
49459;BME280;35354;51.296;16.924;2023-04-03T14:06:21;100657.81;;;4.93;51.68
49459;BME280;35354;51.296;16.924;2023-04-03T14:08:47;100679.06;;;5.29;51.40
49459;BME280;35354;51.296;16.924;2023-04-03T14:11:28;100619.75;;;5.19;51.66
49459;BME280;35354;51.296;16.924;2023-04-03T14:13:55;100682.31;;;5.52;50.21
49459;BME280;35354;51.296;16.924;2023-04-03T14:16:26;100644.41;;;5.51;50.70
49459;BME280;35354;51.296;16.924;2023-04-03T14:18:52;100653.81;;;5.58;51.76